Terminal Aerodrome Forecast
Issued by NWS Charleston, WV

Current Version | Previous Version | Graphics & Text | Print | Product List | Glossary On
Versions: 1 2 3 4 5 6 7 8 9 10 11 12 13 14 15 16 17 18 19 20 21 22 23 24 25 26
000
FTUS41 KRLX 150946 AAB
TAFPKB
TAF AMD
KPKB 150946Z 1510/1606 22009G17KT P6SM BKN015 OVC025
      TEMPO 1510/1514 BKN025
     FM160200 23013G22KT 3SM +RA BR OVC015
     FM160500 23012G22KT 2SM +RA BR OVC015=

USA.gov is the U.S. government's official web portal to all federal, state and local government web resources and services.